Terminal Aerodrome Forecast
Issued by NWS Tampa Bay Area, FL

Home | Current Version | Previous Version | Text Only | Print | Product List | Glossary On
Versions: 1 2 3 4 5 6 7 8 9 10 11 12 13 14 15 16
000
FTUS42 KTBW 060520
TAFSRQ
TAF
KSRQ 060520Z 0606/0706 32007KT P6SM SCT060
      TEMPO 0607/0610 BKN060
     FM061000 31006KT P6SM SKC
     FM061500 33010KT P6SM SKC
     FM061800 30014G20KT P6SM SKC
     FM062300 31012KT P6SM SKC=

USA.gov is the U.S. government's official web portal to all federal, state and local government web resources and services.